Observations for DINARD PLEURTUIT, France (LFRD)

LFRD 202230Z AUTO 20009KT 9999 FEW017 10/08 Q1019 TEMPO 1500 BR BKN002  
LFRD 202200Z AUTO 20008KT CAVOK 10/08 Q1019 TEMPO 1500 BR BKN002
LFRD 202130Z AUTO 21008KT CAVOK 09/08 Q1019 BECMG 3000 BR BKN008
LFRD 202100Z AUTO 20008KT CAVOK 09/08 Q1019 BECMG 3000 BR BKN008
LFRD 202030Z AUTO 21006KT CAVOK 09/08 Q1020 BECMG 3000 BR BKN008
LFRD 202000Z AUTO 20008KT CAVOK 09/08 Q1020 BECMG 3000 BR BKN008
LFRD 201930Z AUTO 20008KT CAVOK 09/08 Q1020 NOSIG   
LFRD 201900Z AUTO 20006KT CAVOK 09/08 Q1020 NOSIG   
LFRD 201830Z AUTO 20006KT CAVOK 10/08 Q1020 NOSIG   
LFRD 201800Z AUTO 22008KT CAVOK 10/08 Q1019 NOSIG   
LFRD 201730Z AUTO 22009KT CAVOK 11/08 Q1019 NOSIG   
LFRD 201700Z AUTO 22012KT CAVOK 11/08 Q1019 NOSIG   
LFRD 201630Z AUTO 22011KT CAVOK 11/09 Q1019 NOSIG   
LFRD 201600Z AUTO 22011KT CAVOK 12/09 Q1020 NOSIG   
LFRD 201530Z AUTO 22011KT CAVOK 12/09 Q1020 NOSIG   
LFRD 201500Z AUTO 21012KT CAVOK 13/09 Q1020 NOSIG   
LFRD 201430Z AUTO 22013KT CAVOK 13/09 Q1020 NOSIG   
LFRD 201400Z AUTO 21013KT CAVOK 13/09 Q1020 NOSIG   
LFRD 201330Z AUTO 22013KT CAVOK 13/09 Q1020 NOSIG   
LFRD 201300Z AUTO 22015KT CAVOK 13/09 Q1020 NOSIG   
LFRD 201230Z AUTO 22014KT CAVOK 13/09 Q1021 NOSIG   
LFRD 201200Z AUTO 22012KT CAVOK 13/09 Q1021 NOSIG   
LFRD 201130Z AUTO 22012KT CAVOK 12/09 Q1021 NOSIG   
LFRD 201100Z AUTO 21009KT 180V240 CAVOK 11/09 Q1022 NOSIG   
LFRD 201030Z AUTO 20007KT 9999 FEW012 10/09 Q1022 BECMG BKN020  
LFRD 201000Z AUTO 18006KT 7000 NSC 10/09 Q1023 NOSIG
LFRD 200930Z AUTO 18005KT 6000 NSC 09/09 Q1023 NOSIG
LFRD 200900Z AUTO 18005KT 6000 SCT012 OVC020 08/08 Q1023 NOSIG  
LFRD 200830Z AUTO 20005KT 7000 OVC020 08/08 Q1023 NOSIG 
LFRD 200800Z AUTO 20003KT 7000 OVC018 08/08 Q1023 NOSIG 
LFRD 200730Z AUTO 24004KT 210V280 9000 OVC016 08/08 Q1023 TEMPO 3000 BR BKN002  
LFRD 200700Z AUTO 25006KT 220V280 9000 OVC013 08/08 Q1023 TEMPO 3000 BR BKN002  
LFRD 200630Z AUTO 24006KT 7000 FEW001 OVC012 08/08 Q1023 BECMG 3000 BR BKN002   
LFRD 200600Z AUTO 24005KT 1300 R35L/1200U BCFG VV/// 07/07 Q1023 BECMG 3000 BR BKN002   
LFRD 200530Z AUTO 21005KT 0450 0400 R35L/0650N FG VV/// 07/06 Q1023 BECMG 3000 BR BKN002
LFRD 200500Z AUTO 20006KT 0450 0400 R35L/0600N FG VV/// 08/08 Q1023 TEMPO BKN005 BECMG 9999 NSW 
LFRD 200430Z AUTO 21004KT 0400 0350 R35L/0600N FG VV/// 08/08 Q1023 NOSIG   
LFRD 200400Z AUTO 24004KT 0650 0550 R35L/0900D FG VV/// 08/08 Q1023 TEMPO 0500 FG   
LFRD 200330Z AUTO 23006KT 5000 BR VV/// 08/08 Q1023 TEMPO 0500 FG   
LFRD 200300Z AUTO 21005KT CAVOK 08/08 Q1023 TEMPO 0500 FG VV/// 
LFRD 200230Z AUTO 20007KT CAVOK 09/08 Q1023 TEMPO 0500 FG VV/// 
LFRD 200200Z AUTO 21007KT 9999 FEW018 09/09 Q1023 TEMPO 0500 FG VV///   
LFRD 200130Z AUTO 21005KT 9999 FEW019 09/09 Q1023 TEMPO 0500 FG VV///   
LFRD 200100Z AUTO 21004KT 7000 SCT019 OVC039 09/09 Q1024 TEMPO 0500 FG VV///
LFRD 200030Z AUTO 20005KT 6000 OVC040 09/09 Q1024 TEMPO 0500 FG VV///   
LFRD 200000Z AUTO 19004KT 7000 FEW012 OVC041 10/09 Q1024 TEMPO 0500 FG VV///
LFRD 192330Z AUTO 20005KT 7000 SCT011 BKN026 OVC042 10/10 Q1024 TEMPO 0500 FG VV/// 
LFRD 192300Z AUTO 22004KT 7000 BKN028 OVC037 10/10 Q1025 TEMPO 0500 FG VV///
LFRD 192230Z AUTO 20005KT 7000 FEW022 OVC038 10/10 Q1025 TEMPO 0500 FG VV///
LFRD 192200Z AUTO 19005KT 9000 FEW007 OVC038 10/09 Q1025 TEMPO 0500 FG VV///